sensor_id;sensor_type;location;lat;lon;timestamp;temperature;humidity
47546;DHT22;50104;52.002;4.688;2023-06-10T00:01:26;20.40;74.90
47546;DHT22;50104;52.002;4.688;2023-06-10T00:06:28;20.30;74.90
47546;DHT22;50104;52.002;4.688;2023-06-10T00:11:39;20.30;75.00
47546;DHT22;50104;52.002;4.688;2023-06-10T00:16:41;20.30;74.90
47546;DHT22;50104;52.002;4.688;2023-06-10T00:21:47;20.20;74.70
47546;DHT22;50104;52.002;4.688;2023-06-10T00:26:48;20.20;74.60
47546;DHT22;50104;52.002;4.688;2023-06-10T00:31:48;20.10;74.30
47546;DHT22;50104;52.002;4.688;2023-06-10T00:36:49;20.10;74.20
47546;DHT22;50104;52.002;4.688;2023-06-10T00:41:51;20.00;74.20
47546;DHT22;50104;52.002;4.688;2023-06-10T00:46:51;20.00;74.10
47546;DHT22;50104;52.002;4.688;2023-06-10T00:51:55;19.90;73.90
47546;DHT22;50104;52.002;4.688;2023-06-10T00:56:57;19.90;73.80
47546;DHT22;50104;52.002;4.688;2023-06-10T01:01:59;19.80;73.80
47546;DHT22;50104;52.002;4.688;2023-06-10T01:12:55;19.80;73.80
47546;DHT22;50104;52.002;4.688;2023-06-10T01:18:09;19.80;73.60
47546;DHT22;50104;52.002;4.688;2023-06-10T01:23:30;19.70;73.60
47546;DHT22;50104;52.002;4.688;2023-06-10T01:28:38;19.70;73.40
47546;DHT22;50104;52.002;4.688;2023-06-10T01:33:47;19.60;73.50
47546;DHT22;50104;52.002;4.688;2023-06-10T01:38:53;19.60;73.30
47546;DHT22;50104;52.002;4.688;2023-06-10T01:43:54;19.60;73.30
47546;DHT22;50104;52.002;4.688;2023-06-10T01:48:56;19.60;73.00
47546;DHT22;50104;52.002;4.688;2023-06-10T01:53:56;19.50;72.80
47546;DHT22;50104;52.002;4.688;2023-06-10T01:58:57;19.50;73.20
47546;DHT22;50104;52.002;4.688;2023-06-10T02:03:59;19.50;72.80
47546;DHT22;50104;52.002;4.688;2023-06-10T02:09:00;19.40;72.80
47546;DHT22;50104;52.002;4.688;2023-06-10T02:14:01;19.40;72.80
47546;DHT22;50104;52.002;4.688;2023-06-10T02:19:02;19.40;72.60
47546;DHT22;50104;52.002;4.688;2023-06-10T02:24:07;19.40;72.50
47546;DHT22;50104;52.002;4.688;2023-06-10T02:29:08;19.30;72.60
47546;DHT22;50104;52.002;4.688;2023-06-10T02:34:09;19.30;72.30
47546;DHT22;50104;52.002;4.688;2023-06-10T02:39:10;19.30;72.20
47546;DHT22;50104;52.002;4.688;2023-06-10T02:44:11;19.20;71.90
47546;DHT22;50104;52.002;4.688;2023-06-10T02:49:12;19.20;71.70
47546;DHT22;50104;52.002;4.688;2023-06-10T02:54:13;19.20;71.60
47546;DHT22;50104;52.002;4.688;2023-06-10T02:59:14;19.20;71.40
47546;DHT22;50104;52.002;4.688;2023-06-10T03:04:15;19.10;71.30
47546;DHT22;50104;52.002;4.688;2023-06-10T03:09:16;19.10;71.10
47546;DHT22;50104;52.002;4.688;2023-06-10T03:14:17;19.10;70.90
47546;DHT22;50104;52.002;4.688;2023-06-10T03:19:18;19.00;70.70
47546;DHT22;50104;52.002;4.688;2023-06-10T03:24:19;19.00;70.50
47546;DHT22;50104;52.002;4.688;2023-06-10T03:29:19;19.00;70.90
47546;DHT22;50104;52.002;4.688;2023-06-10T03:34:21;18.90;70.60
47546;DHT22;50104;52.002;4.688;2023-06-10T03:39:22;18.90;70.40
47546;DHT22;50104;52.002;4.688;2023-06-10T03:44:27;18.90;70.20
47546;DHT22;50104;52.002;4.688;2023-06-10T03:49:28;18.90;70.20
47546;DHT22;50104;52.002;4.688;2023-06-10T03:54:29;18.80;70.10
47546;DHT22;50104;52.002;4.688;2023-06-10T03:59:32;18.80;70.10
47546;DHT22;50104;52.002;4.688;2023-06-10T04:04:34;18.80;70.10
47546;DHT22;50104;52.002;4.688;2023-06-10T04:09:35;18.80;70.00
47546;DHT22;50104;52.002;4.688;2023-06-10T04:14:36;18.80;70.10
47546;DHT22;50104;52.002;4.688;2023-06-10T04:19:38;18.80;70.20
47546;DHT22;50104;52.002;4.688;2023-06-10T04:24:39;18.80;70.20
47546;DHT22;50104;52.002;4.688;2023-06-10T04:29:40;18.80;70.00
47546;DHT22;50104;52.002;4.688;2023-06-10T04:34:41;18.80;70.80
47546;DHT22;50104;52.002;4.688;2023-06-10T04:39:42;18.80;70.30
47546;DHT22;50104;52.002;4.688;2023-06-10T04:44:42;18.80;70.60
47546;DHT22;50104;52.002;4.688;2023-06-10T04:49:43;18.80;71.50
47546;DHT22;50104;52.002;4.688;2023-06-10T04:54:45;18.80;71.10
47546;DHT22;50104;52.002;4.688;2023-06-10T04:59:46;18.80;71.30
47546;DHT22;50104;52.002;4.688;2023-06-10T05:04:48;18.90;71.70
47546;DHT22;50104;52.002;4.688;2023-06-10T05:09:48;18.90;72.30
47546;DHT22;50104;52.002;4.688;2023-06-10T05:14:51;18.90;71.80
47546;DHT22;50104;52.002;4.688;2023-06-10T05:19:52;19.00;71.70
47546;DHT22;50104;52.002;4.688;2023-06-10T05:24:53;19.00;72.20
47546;DHT22;50104;52.002;4.688;2023-06-10T05:29:55;19.10;71.70
47546;DHT22;50104;52.002;4.688;2023-06-10T05:34:57;19.10;71.70
47546;DHT22;50104;52.002;4.688;2023-06-10T05:39:57;19.20;71.30
47546;DHT22;50104;52.002;4.688;2023-06-10T05:44:58;19.20;71.40
47546;DHT22;50104;52.002;4.688;2023-06-10T05:50:00;19.30;71.10
47546;DHT22;50104;52.002;4.688;2023-06-10T05:55:04;19.30;71.20
47546;DHT22;50104;52.002;4.688;2023-06-10T06:00:06;19.40;70.90
47546;DHT22;50104;52.002;4.688;2023-06-10T06:05:08;19.50;70.90
47546;DHT22;50104;52.002;4.688;2023-06-10T06:10:09;19.50;70.80
47546;DHT22;50104;52.002;4.688;2023-06-10T06:15:11;19.60;70.90
47546;DHT22;50104;52.002;4.688;2023-06-10T06:20:12;19.70;70.90
47546;DHT22;50104;52.002;4.688;2023-06-10T06:25:13;19.80;71.00
47546;DHT22;50104;52.002;4.688;2023-06-10T06:30:14;19.90;71.20
47546;DHT22;50104;52.002;4.688;2023-06-10T06:35:15;20.10;71.50
47546;DHT22;50104;52.002;4.688;2023-06-10T06:40:15;20.30;72.00
47546;DHT22;50104;52.002;4.688;2023-06-10T06:45:16;20.70;72.30
47546;DHT22;50104;52.002;4.688;2023-06-10T06:50:17;21.10;72.50
47546;DHT22;50104;52.002;4.688;2023-06-10T06:55:18;21.60;72.10
47546;DHT22;50104;52.002;4.688;2023-06-10T07:00:19;22.10;71.30
47546;DHT22;50104;52.002;4.688;2023-06-10T07:05:20;22.60;70.00
47546;DHT22;50104;52.002;4.688;2023-06-10T07:10:24;23.00;69.00
47546;DHT22;50104;52.002;4.688;2023-06-10T07:15:25;23.50;68.10
47546;DHT22;50104;52.002;4.688;2023-06-10T07:20:26;23.90;67.20
47546;DHT22;50104;52.002;4.688;2023-06-10T07:25:27;24.30;66.70
47546;DHT22;50104;52.002;4.688;2023-06-10T07:30:28;24.60;65.80
47546;DHT22;50104;52.002;4.688;2023-06-10T07:35:29;25.00;65.20
47546;DHT22;50104;52.002;4.688;2023-06-10T07:40:30;25.30;64.90
47546;DHT22;50104;52.002;4.688;2023-06-10T07:45:31;25.60;64.10
47546;DHT22;50104;52.002;4.688;2023-06-10T07:50:32;25.90;63.20
47546;DHT22;50104;52.002;4.688;2023-06-10T07:55:33;26.20;63.10
47546;DHT22;50104;52.002;4.688;2023-06-10T08:00:33;26.40;62.20
47546;DHT22;50104;52.002;4.688;2023-06-10T08:05:34;26.70;62.30
47546;DHT22;50104;52.002;4.688;2023-06-10T08:10:36;26.90;61.40
47546;DHT22;50104;52.002;4.688;2023-06-10T08:15:37;27.10;61.10
47546;DHT22;50104;52.002;4.688;2023-06-10T08:20:38;27.30;61.10
47546;DHT22;50104;52.002;4.688;2023-06-10T08:25:39;27.50;60.80
47546;DHT22;50104;52.002;4.688;2023-06-10T08:30:40;27.70;60.50
47546;DHT22;50104;52.002;4.688;2023-06-10T08:35:41;27.90;60.70
47546;DHT22;50104;52.002;4.688;2023-06-10T08:40:42;28.00;60.40
47546;DHT22;50104;52.002;4.688;2023-06-10T08:45:45;28.20;59.40
47546;DHT22;50104;52.002;4.688;2023-06-10T08:50:50;28.30;59.20
47546;DHT22;50104;52.002;4.688;2023-06-10T08:55:53;28.50;58.60
47546;DHT22;50104;52.002;4.688;2023-06-10T09:00:59;28.60;58.30
47546;DHT22;50104;52.002;4.688;2023-06-10T09:06:01;28.80;57.60
47546;DHT22;50104;52.002;4.688;2023-06-10T09:11:04;28.90;57.60
47546;DHT22;50104;52.002;4.688;2023-06-10T09:16:05;29.10;57.40
47546;DHT22;50104;52.002;4.688;2023-06-10T09:21:06;29.30;56.60
47546;DHT22;50104;52.002;4.688;2023-06-10T09:26:09;29.40;56.40
47546;DHT22;50104;52.002;4.688;2023-06-10T09:31:12;29.60;55.80
47546;DHT22;50104;52.002;4.688;2023-06-10T09:36:21;29.80;55.90
47546;DHT22;50104;52.002;4.688;2023-06-10T09:41:32;30.00;55.90
47546;DHT22;50104;52.002;4.688;2023-06-10T09:46:36;30.20;55.20
47546;DHT22;50104;52.002;4.688;2023-06-10T09:51:37;30.40;55.10
47546;DHT22;50104;52.002;4.688;2023-06-10T09:56:38;30.60;54.80
47546;DHT22;50104;52.002;4.688;2023-06-10T10:01:43;30.80;53.90
47546;DHT22;50104;52.002;4.688;2023-06-10T10:06:44;31.00;53.80
47546;DHT22;50104;52.002;4.688;2023-06-10T10:11:45;31.20;53.30
47546;DHT22;50104;52.002;4.688;2023-06-10T10:16:48;31.50;53.00
47546;DHT22;50104;52.002;4.688;2023-06-10T10:21:54;31.70;52.70
47546;DHT22;50104;52.002;4.688;2023-06-10T10:27:01;31.90;50.90
47546;DHT22;50104;52.002;4.688;2023-06-10T10:32:08;32.10;50.70
47546;DHT22;50104;52.002;4.688;2023-06-10T10:37:09;32.30;49.90
47546;DHT22;50104;52.002;4.688;2023-06-10T10:42:10;32.50;50.10
47546;DHT22;50104;52.002;4.688;2023-06-10T10:47:12;32.70;49.40
47546;DHT22;50104;52.002;4.688;2023-06-10T10:52:14;32.90;49.10
47546;DHT22;50104;52.002;4.688;2023-06-10T10:57:20;33.10;49.00
47546;DHT22;50104;52.002;4.688;2023-06-10T11:02:42;33.20;48.60
47546;DHT22;50104;52.002;4.688;2023-06-10T11:07:55;33.40;47.30
47546;DHT22;50104;52.002;4.688;2023-06-10T11:12:59;33.60;46.70
47546;DHT22;50104;52.002;4.688;2023-06-10T11:28:33;34.10;46.10
47546;DHT22;50104;52.002;4.688;2023-06-10T11:33:38;34.20;45.90
47546;DHT22;50104;52.002;4.688;2023-06-10T11:38:43;34.40;45.70
47546;DHT22;50104;52.002;4.688;2023-06-10T11:43:44;34.60;45.00
47546;DHT22;50104;52.002;4.688;2023-06-10T11:48:53;34.80;44.70
47546;DHT22;50104;52.002;4.688;2023-06-10T11:53:57;35.00;43.70
47546;DHT22;50104;52.002;4.688;2023-06-10T12:04:11;35.30;43.60
47546;DHT22;50104;52.002;4.688;2023-06-10T12:09:24;35.40;43.20
47546;DHT22;50104;52.002;4.688;2023-06-10T12:19:58;35.80;42.10
47546;DHT22;50104;52.002;4.688;2023-06-10T12:25:02;35.90;42.60
47546;DHT22;50104;52.002;4.688;2023-06-10T12:30:05;36.10;42.70
47546;DHT22;50104;52.002;4.688;2023-06-10T12:35:07;36.20;42.80
47546;DHT22;50104;52.002;4.688;2023-06-10T12:40:09;36.40;42.20
47546;DHT22;50104;52.002;4.688;2023-06-10T12:45:11;36.50;44.60
47546;DHT22;50104;52.002;4.688;2023-06-10T12:50:13;36.60;42.10
47546;DHT22;50104;52.002;4.688;2023-06-10T12:55:14;36.70;42.40
47546;DHT22;50104;52.002;4.688;2023-06-10T13:00:15;36.80;41.80
47546;DHT22;50104;52.002;4.688;2023-06-10T13:05:19;36.90;41.80
47546;DHT22;50104;52.002;4.688;2023-06-10T13:10:21;37.00;41.30
47546;DHT22;50104;52.002;4.688;2023-06-10T13:15:22;37.10;41.50
47546;DHT22;50104;52.002;4.688;2023-06-10T13:20:23;37.20;41.00
47546;DHT22;50104;52.002;4.688;2023-06-10T13:25:24;37.30;41.30
47546;DHT22;50104;52.002;4.688;2023-06-10T13:30:25;37.40;40.70
47546;DHT22;50104;52.002;4.688;2023-06-10T13:35:27;37.50;41.10
47546;DHT22;50104;52.002;4.688;2023-06-10T13:40:28;37.60;40.70
47546;DHT22;50104;52.002;4.688;2023-06-10T13:45:29;37.70;40.60
47546;DHT22;50104;52.002;4.688;2023-06-10T13:50:30;37.80;40.80
47546;DHT22;50104;52.002;4.688;2023-06-10T13:55:31;37.90;40.40
47546;DHT22;50104;52.002;4.688;2023-06-10T14:00:31;38.00;40.80
47546;DHT22;50104;52.002;4.688;2023-06-10T14:05:32;38.00;40.60
47546;DHT22;50104;52.002;4.688;2023-06-10T14:10:33;38.10;40.70
47546;DHT22;50104;52.002;4.688;2023-06-10T14:15:34;38.20;40.10
47546;DHT22;50104;52.002;4.688;2023-06-10T14:20:36;38.20;40.10
47546;DHT22;50104;52.002;4.688;2023-06-10T14:25:37;38.20;40.90
47546;DHT22;50104;52.002;4.688;2023-06-10T14:30:38;38.20;39.70
47546;DHT22;50104;52.002;4.688;2023-06-10T14:35:38;38.20;39.00
47546;DHT22;50104;52.002;4.688;2023-06-10T14:40:39;38.30;40.20
47546;DHT22;50104;52.002;4.688;2023-06-10T14:45:40;38.40;39.40
47546;DHT22;50104;52.002;4.688;2023-06-10T14:50:41;38.40;39.20
47546;DHT22;50104;52.002;4.688;2023-06-10T14:55:45;38.50;39.40
47546;DHT22;50104;52.002;4.688;2023-06-10T15:00:46;38.60;39.10
47546;DHT22;50104;52.002;4.688;2023-06-10T15:05:47;38.60;38.60
47546;DHT22;50104;52.002;4.688;2023-06-10T15:10:49;38.70;38.90
47546;DHT22;50104;52.002;4.688;2023-06-10T15:15:50;38.80;39.30
47546;DHT22;50104;52.002;4.688;2023-06-10T15:20:51;38.80;38.70
47546;DHT22;50104;52.002;4.688;2023-06-10T15:25:52;38.80;39.00
47546;DHT22;50104;52.002;4.688;2023-06-10T15:30:53;38.80;38.50
47546;DHT22;50104;52.002;4.688;2023-06-10T15:35:54;38.80;39.20
47546;DHT22;50104;52.002;4.688;2023-06-10T15:40:55;38.80;40.30
47546;DHT22;50104;52.002;4.688;2023-06-10T15:45:56;38.80;40.30
47546;DHT22;50104;52.002;4.688;2023-06-10T15:50:57;38.90;40.70
47546;DHT22;50104;52.002;4.688;2023-06-10T15:55:58;38.80;40.80
47546;DHT22;50104;52.002;4.688;2023-06-10T16:00:58;38.80;41.80
47546;DHT22;50104;52.002;4.688;2023-06-10T16:06:00;38.80;40.80
47546;DHT22;50104;52.002;4.688;2023-06-10T16:11:01;38.80;40.30
47546;DHT22;50104;52.002;4.688;2023-06-10T16:16:01;38.80;40.50
47546;DHT22;50104;52.002;4.688;2023-06-10T16:21:04;38.70;40.80
47546;DHT22;50104;52.002;4.688;2023-06-10T16:26:06;38.60;40.20
47546;DHT22;50104;52.002;4.688;2023-06-10T16:31:07;38.60;40.60
47546;DHT22;50104;52.002;4.688;2023-06-10T16:36:07;38.60;41.30
47546;DHT22;50104;52.002;4.688;2023-06-10T16:41:08;38.50;41.30
47546;DHT22;50104;52.002;4.688;2023-06-10T16:46:09;38.40;40.20
47546;DHT22;50104;52.002;4.688;2023-06-10T16:51:11;38.30;40.90
47546;DHT22;50104;52.002;4.688;2023-06-10T16:56:12;38.20;41.40
47546;DHT22;50104;52.002;4.688;2023-06-10T17:01:12;38.10;41.20
47546;DHT22;50104;52.002;4.688;2023-06-10T17:06:13;37.90;40.50
47546;DHT22;50104;52.002;4.688;2023-06-10T17:11:14;37.80;41.80
47546;DHT22;50104;52.002;4.688;2023-06-10T17:16:15;37.70;41.20
47546;DHT22;50104;52.002;4.688;2023-06-10T17:21:22;37.50;40.30
47546;DHT22;50104;52.002;4.688;2023-06-10T17:26:23;37.40;41.00
47546;DHT22;50104;52.002;4.688;2023-06-10T17:31:25;37.20;41.40
47546;DHT22;50104;52.002;4.688;2023-06-10T17:36:26;37.10;40.70
47546;DHT22;50104;52.002;4.688;2023-06-10T17:41:27;37.00;41.70
47546;DHT22;50104;52.002;4.688;2023-06-10T17:46:28;36.80;40.50
47546;DHT22;50104;52.002;4.688;2023-06-10T17:51:29;36.60;39.90
47546;DHT22;50104;52.002;4.688;2023-06-10T17:56:30;36.50;40.70
47546;DHT22;50104;52.002;4.688;2023-06-10T18:01:31;36.30;41.00
47546;DHT22;50104;52.002;4.688;2023-06-10T18:06:33;36.10;41.10
47546;DHT22;50104;52.002;4.688;2023-06-10T18:11:34;35.90;41.30
47546;DHT22;50104;52.002;4.688;2023-06-10T18:16:35;35.80;41.80
47546;DHT22;50104;52.002;4.688;2023-06-10T18:21:36;35.60;41.10
47546;DHT22;50104;52.002;4.688;2023-06-10T18:26:39;35.40;42.20
47546;DHT22;50104;52.002;4.688;2023-06-10T18:31:40;35.20;41.40
47546;DHT22;50104;52.002;4.688;2023-06-10T18:36:40;35.00;42.20
47546;DHT22;50104;52.002;4.688;2023-06-10T18:41:42;34.80;41.90
47546;DHT22;50104;52.002;4.688;2023-06-10T18:46:43;34.60;42.40
47546;DHT22;50104;52.002;4.688;2023-06-10T18:51:43;34.30;42.30
47546;DHT22;50104;52.002;4.688;2023-06-10T18:56:44;34.10;42.80
47546;DHT22;50104;52.002;4.688;2023-06-10T19:01:46;33.90;43.00
47546;DHT22;50104;52.002;4.688;2023-06-10T19:06:48;33.60;43.20
47546;DHT22;50104;52.002;4.688;2023-06-10T19:11:48;33.40;43.30
47546;DHT22;50104;52.002;4.688;2023-06-10T19:16:49;33.10;43.40
47546;DHT22;50104;52.002;4.688;2023-06-10T19:21:50;32.90;43.70
47546;DHT22;50104;52.002;4.688;2023-06-10T19:26:51;32.60;43.80
47546;DHT22;50104;52.002;4.688;2023-06-10T19:31:52;32.30;44.00
47546;DHT22;50104;52.002;4.688;2023-06-10T19:36:53;32.00;44.40
47546;DHT22;50104;52.002;4.688;2023-06-10T19:41:54;31.70;45.00
47546;DHT22;50104;52.002;4.688;2023-06-10T19:46:54;31.40;45.60
47546;DHT22;50104;52.002;4.688;2023-06-10T19:51:55;31.10;45.50
47546;DHT22;50104;52.002;4.688;2023-06-10T19:56:56;30.80;45.80
47546;DHT22;50104;52.002;4.688;2023-06-10T20:01:57;30.50;46.20
47546;DHT22;50104;52.002;4.688;2023-06-10T20:06:58;30.20;46.20
47546;DHT22;50104;52.002;4.688;2023-06-10T20:11:59;29.90;46.70
47546;DHT22;50104;52.002;4.688;2023-06-10T20:16:59;29.60;46.90
47546;DHT22;50104;52.002;4.688;2023-06-10T20:22:00;29.40;47.10
47546;DHT22;50104;52.002;4.688;2023-06-10T20:27:04;29.10;47.40
47546;DHT22;50104;52.002;4.688;2023-06-10T20:32:06;28.90;47.70
47546;DHT22;50104;52.002;4.688;2023-06-10T20:37:07;28.70;47.90
47546;DHT22;50104;52.002;4.688;2023-06-10T20:42:08;28.40;48.10
47546;DHT22;50104;52.002;4.688;2023-06-10T20:47:09;28.20;48.30
47546;DHT22;50104;52.002;4.688;2023-06-10T20:52:10;28.00;48.40
47546;DHT22;50104;52.002;4.688;2023-06-10T20:57:11;27.80;48.60
47546;DHT22;50104;52.002;4.688;2023-06-10T21:02:12;27.60;48.80
47546;DHT22;50104;52.002;4.688;2023-06-10T21:07:13;27.40;49.00
47546;DHT22;50104;52.002;4.688;2023-06-10T21:12:14;27.20;49.20
47546;DHT22;50104;52.002;4.688;2023-06-10T21:17:15;27.10;49.40
47546;DHT22;50104;52.002;4.688;2023-06-10T21:22:16;26.90;49.50
47546;DHT22;50104;52.002;4.688;2023-06-10T21:27:17;26.70;49.60
47546;DHT22;50104;52.002;4.688;2023-06-10T21:32:18;26.60;49.40
47546;DHT22;50104;52.002;4.688;2023-06-10T21:37:19;26.40;49.40
47546;DHT22;50104;52.002;4.688;2023-06-10T21:42:20;26.20;49.70
47546;DHT22;50104;52.002;4.688;2023-06-10T21:47:21;26.10;49.70
47546;DHT22;50104;52.002;4.688;2023-06-10T21:52:22;25.90;49.70
47546;DHT22;50104;52.002;4.688;2023-06-10T21:57:23;25.80;49.90
47546;DHT22;50104;52.002;4.688;2023-06-10T22:02:24;25.60;50.00
47546;DHT22;50104;52.002;4.688;2023-06-10T22:07:26;25.50;50.10
47546;DHT22;50104;52.002;4.688;2023-06-10T22:12:27;25.40;50.20
47546;DHT22;50104;52.002;4.688;2023-06-10T22:17:28;25.30;50.40
47546;DHT22;50104;52.002;4.688;2023-06-10T22:22:29;25.20;50.20
47546;DHT22;50104;52.002;4.688;2023-06-10T22:27:30;25.00;50.50
47546;DHT22;50104;52.002;4.688;2023-06-10T22:32:30;24.90;50.60
47546;DHT22;50104;52.002;4.688;2023-06-10T22:37:32;24.80;50.80
47546;DHT22;50104;52.002;4.688;2023-06-10T22:42:34;24.70;50.90
47546;DHT22;50104;52.002;4.688;2023-06-10T22:47:36;24.60;51.20
47546;DHT22;50104;52.002;4.688;2023-06-10T22:52:37;24.50;51.20
47546;DHT22;50104;52.002;4.688;2023-06-10T22:57:38;24.40;51.50
47546;DHT22;50104;52.002;4.688;2023-06-10T23:02:39;24.40;51.40
47546;DHT22;50104;52.002;4.688;2023-06-10T23:07:40;24.30;51.60
47546;DHT22;50104;52.002;4.688;2023-06-10T23:12:40;24.20;51.60
47546;DHT22;50104;52.002;4.688;2023-06-10T23:17:41;24.10;51.80
47546;DHT22;50104;52.002;4.688;2023-06-10T23:22:45;24.00;52.10
47546;DHT22;50104;52.002;4.688;2023-06-10T23:27:50;24.00;52.30
47546;DHT22;50104;52.002;4.688;2023-06-10T23:32:51;23.90;52.30
47546;DHT22;50104;52.002;4.688;2023-06-10T23:37:52;23.80;52.50
47546;DHT22;50104;52.002;4.688;2023-06-10T23:42:53;23.70;52.70
47546;DHT22;50104;52.002;4.688;2023-06-10T23:47:54;23.70;52.80
47546;DHT22;50104;52.002;4.688;2023-06-10T23:52:56;23.60;53.10
47546;DHT22;50104;52.002;4.688;2023-06-10T23:57:57;23.50;53.10
